Time;durP1;ratioP1;P1;durP2;ratioP2;P2;SDS_P1;SDS_P2;PMS_P1;PMS_P2;Temp;Humidity;BMP_temperature;BMP_pressure;BME280_temperature;BME280_humidity;BME280_pressure;Samples;Min_cycle;Max_cycle;Signal;HPM_P1;HPM_P2
2021/12/27 00:00:45;;;;;;;2.65;2.45;;;;;;;7.98;88.26;98411.72;4963391;28;20212;-92
2021/12/27 00:03:28;;;;;;;3.15;2.70;;;;;;;8.00;88.17;98412.44;4980423;28;20211;-92
2021/12/27 00:05:54;;;;;;;2.47;2.27;;;;;;;8.00;88.31;98406.38;4962950;28;20402;-92
2021/12/27 00:08:23;;;;;;;2.60;2.20;;;;;;;8.01;88.29;98406.25;4982656;28;20666;-93
2021/12/27 00:10:51;;;;;;;1.95;1.73;;;;;;;8.02;88.16;98407.09;4983256;28;20290;-92
2021/12/27 00:13:17;;;;;;;2.73;2.50;;;;;;;8.04;88.14;98405.22;4989784;28;20202;-92
2021/12/27 00:15:52;;;;;;;3.10;1.97;;;;;;;8.05;88.16;98405.09;4985930;28;20216;-92
2021/12/27 00:18:17;;;;;;;2.40;1.90;;;;;;;8.07;88.11;98392.72;4987210;28;20560;-92
2021/12/27 00:20:43;;;;;;;2.13;1.90;;;;;;;8.09;88.06;98395.25;4973374;28;20206;-92
2021/12/27 00:23:08;;;;;;;1.87;1.77;;;;;;;8.10;87.99;98387.31;5000882;28;20230;-93
2021/12/27 00:25:34;;;;;;;2.03;1.93;;;;;;;8.10;87.87;98384.69;5000246;28;20206;-91
2021/12/27 00:28:05;;;;;;;4.40;2.37;;;;;;;8.12;87.84;98393.22;4979839;28;20364;-92
2021/12/27 00:30:34;;;;;;;2.20;2.00;;;;;;;8.11;87.76;98394.19;4979717;28;20616;-92
2021/12/27 00:32:59;;;;;;;2.00;1.90;;;;;;;8.12;87.81;98385.38;4979364;28;20207;-92
2021/12/27 00:35:26;;;;;;;2.80;2.03;;;;;;;8.13;87.55;98387.06;4961829;28;20219;-92
2021/12/27 00:37:55;;;;;;;1.80;1.70;;;;;;;8.12;87.60;98390.63;4978811;28;20231;-93
2021/12/27 00:40:21;;;;;;;3.55;2.03;;;;;;;8.12;87.64;98390.63;4963303;28;20199;-92
2021/12/27 00:42:54;;;;;;;1.50;1.40;;;;;;;8.14;87.54;98391.34;4981305;28;20223;-92
2021/12/27 00:45:22;;;;;;;1.80;1.70;;;;;;;8.12;87.43;98390.63;4977048;28;20611;-91
2021/12/27 00:47:50;;;;;;;2.13;1.92;;;;;;;8.13;87.46;98384.47;4980963;28;20670;-92
2021/12/27 00:50:15;;;;;;;2.78;1.80;;;;;;;8.13;87.41;98381.84;4978290;28;20206;-92
2021/12/27 00:52:41;;;;;;;1.67;1.50;;;;;;;8.12;87.52;98385.38;4970067;28;20203;-92
2021/12/27 00:55:12;;;;;;;1.50;1.40;;;;;;;8.13;87.45;98386.25;4985301;28;20234;-91
2021/12/27 00:57:40;;;;;;;1.92;1.77;;;;;;;8.13;87.17;98384.47;4983972;28;20720;-91
2021/12/27 01:00:10;;;;;;;1.52;1.42;;;;;;;8.14;87.24;98377.44;4963198;28;20968;-92
2021/12/27 01:02:36;;;;;;;1.45;1.35;;;;;;;8.14;86.98;98380.88;4978284;28;20792;-92
2021/12/27 01:05:03;;;;;;;7.18;2.10;;;;;;;8.14;86.97;98373.03;4981401;28;20222;-92
2021/12/27 01:07:28;;;;;;;1.48;1.35;;;;;;;8.13;86.89;98374.00;4977711;28;20349;-91
2021/12/27 01:15:10;;;;;;;2.33;1.73;;;;;;;8.09;87.00;98377.78;4976427;28;20194;-92
2021/12/27 01:17:43;;;;;;;1.85;1.70;;;;;;;8.07;86.91;98371.81;4977436;28;20627;-92
2021/12/27 01:20:12;;;;;;;1.63;1.52;;;;;;;8.07;86.98;98363.13;4976669;28;20196;-93
2021/12/27 01:22:37;;;;;;;2.65;1.60;;;;;;;8.07;86.86;98365.75;4978061;28;20199;-92
2021/12/27 01:25:06;;;;;;;1.67;1.57;;;;;;;8.09;86.93;98362.06;4980368;28;20222;-92
2021/12/27 01:27:34;;;;;;;1.23;1.13;;;;;;;8.10;86.81;98363.75;4978984;28;20331;-91
2021/12/27 01:30:01;;;;;;;1.73;1.63;;;;;;;8.12;86.71;98364.47;4970275;28;20208;-92
2021/12/27 01:32:42;;;;;;;1.52;1.42;;;;;;;8.14;86.69;98362.56;4976805;28;20731;-92
2021/12/27 01:35:11;;;;;;;3.55;1.50;;;;;;;8.17;86.69;98357.13;4966234;28;20980;-92
2021/12/27 01:37:40;;;;;;;1.65;1.55;;;;;;;8.20;86.57;98366.53;4961975;28;20737;-92
2021/12/27 01:40:14;;;;;;;1.52;1.42;;;;;;;8.21;86.41;98362.97;4977529;28;20209;-92
2021/12/27 01:43:03;;;;;;;2.80;2.08;;;;;;;8.25;86.39;98374.03;4981516;28;20234;-93
2021/12/27 01:45:29;;;;;;;1.42;1.33;;;;;;;8.25;86.36;98363.56;4987023;28;20203;-92
2021/12/27 01:47:57;;;;;;;1.53;1.33;;;;;;;8.25;86.36;98369.63;4985012;28;20211;-92
2021/12/27 01:50:23;;;;;;;1.67;1.50;;;;;;;8.22;86.40;98359.41;4988771;28;20227;-92
2021/12/27 01:52:52;;;;;;;1.30;1.20;;;;;;;8.21;86.80;98357.75;4991764;28;20228;-92
2021/12/27 01:55:18;;;;;;;1.30;1.20;;;;;;;8.23;86.66;98360.22;4993098;28;21075;-91
2021/12/27 01:57:44;;;;;;;1.98;1.88;;;;;;;8.20;86.46;98356.88;4985135;28;20227;-92
2021/12/27 02:00:10;;;;;;;3.17;1.57;;;;;;;8.20;86.43;98354.28;4995565;28;20242;-92
2021/12/27 02:02:39;;;;;;;2.80;1.85;;;;;;;8.19;86.44;98359.63;5007666;28;20206;-91
2021/12/27 02:05:07;;;;;;;2.13;1.83;;;;;;;8.16;86.48;98350.22;5010789;28;20218;-91
2021/12/27 02:07:32;;;;;;;2.33;1.70;;;;;;;8.16;86.61;98347.63;5005818;28;20294;-91
2021/12/27 02:10:04;;;;;;;9.30;2.20;;;;;;;8.16;86.56;98354.63;4995869;28;20258;-92
2021/12/27 02:12:30;;;;;;;3.45;1.50;;;;;;;8.16;86.54;98358.06;4964689;28;20198;-91
2021/12/27 02:14:56;;;;;;;2.47;1.60;;;;;;;8.16;86.54;98354.63;4996557;28;20207;-92
2021/12/27 02:17:22;;;;;;;1.73;1.50;;;;;;;8.17;86.54;98353.69;4996994;28;20238;-92
2021/12/27 02:19:49;;;;;;;1.60;1.50;;;;;;;8.17;86.60;98351.88;4997168;28;20680;-92
2021/12/27 02:22:20;;;;;;;1.45;1.35;;;;;;;8.18;86.54;98353.56;4995660;28;20306;-90
2021/12/27 02:24:46;;;;;;;2.90;1.50;;;;;;;8.20;86.45;98350.81;5004588;28;20481;-92
2021/12/27 02:27:16;;;;;;;1.77;1.67;;;;;;;8.19;86.65;98344.78;5006688;28;20214;-91
2021/12/27 02:29:42;;;;;;;3.28;1.83;;;;;;;8.20;86.49;98350.81;4998370;28;20218;-92
2021/12/27 02:32:08;;;;;;;2.20;1.60;;;;;;;8.31;86.58;98347.41;4984350;28;20498;-92
2021/12/27 02:34:33;;;;;;;1.83;1.73;;;;;;;8.29;86.50;98346.69;4984031;28;20199;-92
2021/12/27 02:37:00;;;;;;;1.53;1.43;;;;;;;8.27;86.50;98340.75;4969950;28;20333;-91
2021/12/27 02:39:29;;;;;;;1.60;1.50;;;;;;;8.24;86.56;98335.75;4980746;28;20222;-91
2021/12/27 02:41:54;;;;;;;1.85;1.75;;;;;;;8.22;86.54;98328.00;4982607;28;20246;-91
2021/12/27 02:44:20;;;;;;;2.88;1.52;;;;;;;8.22;86.54;98330.63;4966488;28;20208;-91
2021/12/27 02:46:46;;;;;;;2.63;1.87;;;;;;;8.22;86.48;98322.78;4987804;28;20629;-92
2021/12/27 02:49:12;;;;;;;1.53;1.43;;;;;;;8.23;86.74;98331.47;4972179;28;20203;-92
2021/12/27 02:51:37;;;;;;;2.10;1.90;;;;;;;8.23;86.72;98337.50;4968296;28;20206;-92
2021/12/27 02:54:03;;;;;;;1.97;1.87;;;;;;;8.21;86.67;98336.81;4989625;28;20204;-92
2021/12/27 02:56:30;;;;;;;2.37;1.40;;;;;;;8.20;86.68;98338.56;4998585;28;20783;-91
2021/12/27 02:58:57;;;;;;;3.35;1.70;;;;;;;8.17;86.78;98328.34;4966161;28;20203;-92
2021/12/27 03:01:35;;;;;;;2.20;2.00;;;;;;;8.22;86.86;98332.41;4991270;28;20561;-92
2021/12/27 03:04:01;;;;;;;2.15;1.40;;;;;;;8.17;86.71;98336.19;4988675;28;20496;-91
2021/12/27 03:06:29;;;;;;;2.00;1.65;;;;;;;8.13;86.85;98326.91;4984467;28;20479;-93
2021/12/27 03:08:55;;;;;;;2.30;1.80;;;;;;;8.11;87.04;98330.59;4965844;28;20195;-92
2021/12/27 03:11:20;;;;;;;5.50;1.87;;;;;;;8.07;86.84;98321.28;4978821;28;20688;-93
2021/12/27 03:13:51;;;;;;;1.73;1.47;;;;;;;7.98;87.24;98320.19;4987791;28;20216;-92
2021/12/27 03:16:21;;;;;;;1.45;1.35;;;;;;;7.92;87.31;98315.44;4970534;28;20211;-91
2021/12/27 03:18:49;;;;;;;1.60;1.50;;;;;;;7.89;87.41;98320.88;4986469;28;20327;-91
2021/12/27 03:21:15;;;;;;;1.65;1.55;;;;;;;7.87;87.62;98325.38;4967957;28;20242;-92
2021/12/27 03:23:42;;;;;;;2.40;1.33;;;;;;;7.83;87.66;98316.94;4997288;28;20217;-92
2021/12/27 03:26:09;;;;;;;1.65;1.40;;;;;;;7.80;87.48;98317.13;4992821;28;20203;-93
2021/12/27 03:28:36;;;;;;;1.85;1.65;;;;;;;7.76;87.66;98311.31;4995150;28;20266;-90
2021/12/27 03:31:05;;;;;;;3.58;1.73;;;;;;;7.74;87.71;98315.81;4996163;28;20195;-92
2021/12/27 03:33:34;;;;;;;1.73;1.63;;;;;;;7.71;87.79;98310.81;4975326;28;20211;-92
2021/12/27 03:36:09;;;;;;;2.95;1.65;;;;;;;7.68;87.90;98304.97;4996546;28;20222;-92
2021/12/27 03:38:42;;;;;;;2.45;1.98;;;;;;;7.66;87.72;98302.47;4996964;28;20230;-92
2021/12/27 03:41:17;;;;;;;1.60;1.50;;;;;;;7.66;87.87;98305.06;4992796;28;20981;-91
2021/12/27 03:43:43;;;;;;;1.40;1.30;;;;;;;7.66;88.01;98305.06;4978955;28;20203;-91
2021/12/27 03:46:09;;;;;;;2.27;1.60;;;;;;;7.66;88.13;98297.25;4992956;28;20234;-91
2021/12/27 03:48:34;;;;;;;4.10;1.70;;;;;;;7.65;88.07;98297.38;4990888;28;20203;-91
2021/12/27 03:51:01;;;;;;;1.70;1.50;;;;;;;7.64;88.07;98299.16;4995633;28;21241;-92
2021/12/27 03:53:26;;;;;;;2.08;1.52;;;;;;;7.64;88.05;98296.53;4973971;28;20930;-91
2021/12/27 03:55:52;;;;;;;4.17;3.37;;;;;;;7.62;88.13;98284.53;4976531;28;20210;-92
2021/12/27 03:58:31;;;;;;;4.60;2.17;;;;;;;7.59;87.87;98279.50;4991434;28;20233;-92
2021/12/27 04:01:14;;;;;;;1.73;1.63;;;;;;;7.53;88.36;98281.63;4970494;28;20211;-92
2021/12/27 04:03:41;;;;;;;3.28;1.60;;;;;;;7.48;88.40;98278.53;4969380;28;20325;-91
2021/12/27 04:06:06;;;;;;;2.55;1.65;;;;;;;7.45;88.31;98273.53;4992722;28;20207;-92
2021/12/27 04:08:32;;;;;;;8.02;2.10;;;;;;;7.40;88.51;98277.38;4988822;28;20580;-92
2021/12/27 04:10:58;;;;;;;2.67;2.10;;;;;;;7.36;88.54;98278.56;4970487;28;20681;-92
2021/12/27 04:13:24;;;;;;;3.00;2.00;;;;;;;7.31;88.41;98284.09;4992073;28;20276;-91
2021/12/27 04:15:51;;;;;;;2.87;1.80;;;;;;;7.30;88.72;98285.06;4991586;28;20203;-92
2021/12/27 04:18:17;;;;;;;1.80;1.70;;;;;;;7.28;88.74;98274.72;4994410;28;21006;-92
2021/12/27 04:20:46;;;;;;;4.25;1.95;;;;;;;7.27;88.65;98275.66;4992123;28;20239;-92
2021/12/27 04:23:12;;;;;;;2.20;2.10;;;;;;;7.25;88.71;98272.31;4974052;28;20203;-91
2021/12/27 04:25:38;;;;;;;3.35;1.63;;;;;;;7.23;88.79;98270.75;4973835;28;20227;-92
2021/12/27 04:28:04;;;;;;;3.35;1.90;;;;;;;7.21;88.50;98273.50;4995002;28;20202;-92
2021/12/27 04:30:30;;;;;;;3.93;2.57;;;;;;;7.17;88.53;98277.25;4992145;28;20207;-91
2021/12/27 04:32:56;;;;;;;3.17;1.70;;;;;;;7.14;89.10;98271.44;4992397;28;20207;-91
2021/12/27 04:35:21;;;;;;;2.43;1.83;;;;;;;7.11;89.01;98269.88;4995328;28;20542;-93
2021/12/27 04:37:48;;;;;;;2.40;2.20;;;;;;;7.12;89.09;98281.13;4992067;28;20330;-91
2021/12/27 04:40:17;;;;;;;5.07;2.50;;;;;;;7.09;89.20;98283.00;4990856;28;20990;-92
2021/12/27 04:42:48;;;;;;;2.42;2.22;;;;;;;7.09;88.82;98287.41;4973959;28;20219;-91
2021/12/27 04:45:16;;;;;;;2.65;2.47;;;;;;;7.09;89.05;98279.56;4994131;28;20218;-91
2021/12/27 04:47:45;;;;;;;3.50;2.40;;;;;;;7.08;89.13;98278.75;4991790;28;20249;-91
2021/12/27 04:50:12;;;;;;;3.25;2.28;;;;;;;7.08;88.92;98280.53;4993111;28;20229;-92
2021/12/27 04:52:40;;;;;;;3.55;2.10;;;;;;;7.09;89.13;98269.13;4992370;28;20437;-91
2021/12/27 04:55:06;;;;;;;2.50;2.00;;;;;;;7.08;89.38;98268.31;4990506;28;20665;-92
2021/12/27 04:57:32;;;;;;;3.28;2.28;;;;;;;7.06;89.37;98271.97;4988794;28;20246;-92
2021/12/27 04:59:58;;;;;;;2.60;2.40;;;;;;;7.04;89.16;98266.00;4990225;28;20215;-92
2021/12/27 05:02:24;;;;;;;2.90;1.77;;;;;;;7.02;89.39;98267.88;4991978;28;20202;-92
2021/12/27 05:04:50;;;;;;;2.00;1.90;;;;;;;6.99;89.11;98260.28;4987602;28;20461;-92
2021/12/27 05:07:16;;;;;;;3.47;2.50;;;;;;;6.99;89.38;98263.72;4975566;28;20203;-92
2021/12/27 05:09:41;;;;;;;2.50;2.30;;;;;;;7.00;89.39;98260.19;4972770;28;20239;-92
2021/12/27 05:12:10;;;;;;;3.30;3.10;;;;;;;6.99;89.41;98257.66;4988659;28;20465;-92
2021/12/27 05:14:35;;;;;;;3.05;2.30;;;;;;;6.97;89.23;98244.75;4988609;28;20227;-91
2021/12/27 05:17:01;;;;;;;2.40;2.00;;;;;;;6.95;89.43;98249.22;4982567;28;20220;-93
2021/12/27 05:19:27;;;;;;;2.40;2.20;;;;;;;6.94;89.54;98249.31;4967079;28;20226;-92
2021/12/27 05:21:52;;;;;;;2.83;1.90;;;;;;;6.93;89.62;98239.84;4967403;28;20610;-92
2021/12/27 05:24:19;;;;;;;2.63;2.40;;;;;;;6.94;89.67;98236.25;4992789;28;20448;-92
2021/12/27 05:26:44;;;;;;;2.20;2.05;;;;;;;6.93;89.54;98232.00;4989768;28;20206;-92
2021/12/27 05:29:10;;;;;;;2.53;2.33;;;;;;;6.93;89.52;98229.38;4989828;28;20534;-92
2021/12/27 05:31:37;;;;;;;2.83;2.63;;;;;;;6.92;89.33;98225.94;4991990;28;20212;-93
2021/12/27 05:34:03;;;;;;;5.13;3.13;;;;;;;6.89;89.39;98220.13;4990535;28;20208;-93
2021/12/27 05:36:29;;;;;;;2.63;2.42;;;;;;;6.87;89.08;98223.66;4994185;28;20214;-92
2021/12/27 05:38:57;;;;;;;2.57;2.10;;;;;;;6.84;89.31;98218.66;4987154;28;20354;-92
2021/12/27 05:41:23;;;;;;;3.22;2.53;;;;;;;6.79;89.46;98218.16;4990167;28;20276;-92
2021/12/27 05:43:49;;;;;;;2.78;2.58;;;;;;;6.73;89.38;98221.19;4986530;28;20270;-93
2021/12/27 05:46:14;;;;;;;3.40;1.80;;;;;;;6.69;89.10;98224.13;4987424;28;20211;-92
2021/12/27 05:48:43;;;;;;;1.90;1.80;;;;;;;6.65;89.48;98218.28;4989467;28;20287;-92
2021/12/27 05:51:09;;;;;;;2.15;1.80;;;;;;;6.62;89.48;98208.06;4990964;28;20664;-92
2021/12/27 05:53:34;;;;;;;2.77;1.63;;;;;;;6.61;89.40;98206.38;4970208;28;20254;-92
2021/12/27 05:56:03;;;;;;;2.70;2.50;;;;;;;6.58;89.52;98198.78;4987946;28;20210;-92
2021/12/27 05:58:34;;;;;;;2.08;1.70;;;;;;;6.56;89.34;98201.50;4971438;28;20233;-92
2021/12/27 06:01:04;;;;;;;2.55;2.38;;;;;;;6.52;89.29;98187.00;4979826;28;20231;-92
2021/12/27 06:03:31;;;;;;;3.20;2.92;;;;;;;6.47;89.23;98190.88;4955757;28;20676;-92
2021/12/27 06:05:57;;;;;;;3.60;3.00;;;;;;;6.41;89.47;98190.34;4992435;28;20199;-92
2021/12/27 06:08:23;;;;;;;2.27;2.10;;;;;;;6.37;89.25;98186.31;4972536;28;20566;-92
2021/12/27 06:10:48;;;;;;;2.47;1.90;;;;;;;6.32;89.35;98187.53;4988102;28;20247;-92
2021/12/27 06:13:17;;;;;;;3.60;1.70;;;;;;;6.27;89.35;98190.47;4989533;28;20805;-93
2021/12/27 06:15:43;;;;;;;3.42;1.80;;;;;;;6.23;89.67;98181.19;4990971;28;20206;-92
2021/12/27 06:18:09;;;;;;;1.97;1.70;;;;;;;6.19;89.64;98182.34;4988452;28;20227;-93
2021/12/27 06:20:35;;;;;;;2.08;1.98;;;;;;;6.13;89.71;98174.91;4991220;28;20454;-93
2021/12/27 06:23:06;;;;;;;2.30;2.10;;;;;;;6.08;89.43;98177.03;4999336;28;20530;-93
2021/12/27 06:25:32;;;;;;;2.40;2.20;;;;;;;6.03;89.13;98166.09;4991933;28;20196;-92
2021/12/27 06:27:58;;;;;;;2.73;2.50;;;;;;;5.94;89.28;98170.13;4987026;28;20200;-92
2021/12/27 06:30:24;;;;;;;5.10;2.33;;;;;;;5.86;89.50;98183.66;4989913;28;21010;-92
2021/12/27 06:32:49;;;;;;;2.43;2.23;;;;;;;5.79;89.39;98174.59;4989568;28;20250;-91
2021/12/27 06:35:17;;;;;;;2.80;2.40;;;;;;;5.72;89.49;98178.53;4989875;28;20459;-91
2021/12/27 06:37:44;;;;;;;3.42;3.13;;;;;;;5.69;89.53;98176.13;4990306;28;20508;-91
2021/12/27 06:40:18;;;;;;;3.63;3.25;;;;;;;5.67;89.70;98180.59;4974057;28;20207;-91
2021/12/27 06:42:44;;;;;;;5.75;3.80;;;;;;;5.64;89.43;98178.19;4989829;28;20278;-91
2021/12/27 06:45:10;;;;;;;3.33;3.13;;;;;;;5.57;89.61;98176.97;4972527;28;20568;-90
2021/12/27 06:47:35;;;;;;;3.60;3.30;;;;;;;5.49;89.44;98174.84;4986139;28;20293;-90
2021/12/27 06:50:04;;;;;;;2.40;2.20;;;;;;;5.43;89.98;98172.66;4966693;28;20581;-91
2021/12/27 06:52:30;;;;;;;2.28;2.17;;;;;;;5.40;89.77;98165.03;4986154;28;20218;-90
2021/12/27 06:54:56;;;;;;;4.10;2.90;;;;;;;5.38;89.82;98167.75;4989678;28;20196;-90
2021/12/27 06:57:21;;;;;;;4.33;3.53;;;;;;;5.31;89.49;98169.91;4989738;28;20242;-90
2021/12/27 06:59:47;;;;;;;7.90;4.50;;;;;;;5.24;89.52;98162.63;4974393;28;20203;-90
2021/12/27 07:02:13;;;;;;;5.33;2.67;;;;;;;5.19;89.86;98167.28;4970993;28;20245;-92
2021/12/27 07:04:41;;;;;;;3.90;3.23;;;;;;;5.15;90.00;98165.78;4976975;28;20532;-91
2021/12/27 07:07:09;;;;;;;3.85;3.53;;;;;;;5.13;89.94;98175.47;4993597;28;20564;-91
2021/12/27 07:09:35;;;;;;;3.00;2.80;;;;;;;5.12;89.78;98171.19;4977302;28;20720;-91
2021/12/27 07:12:10;;;;;;;3.53;3.22;;;;;;;5.12;90.30;98173.81;4990327;28;20204;-91
2021/12/27 07:14:36;;;;;;;3.30;3.10;;;;;;;5.11;89.81;98172.97;5009214;28;20256;-91
2021/12/27 07:17:02;;;;;;;3.43;3.13;;;;;;;5.11;90.06;98172.97;4994049;28;20271;-91
2021/12/27 07:19:27;;;;;;;3.33;3.03;;;;;;;5.10;90.04;98177.34;5000320;28;20266;-89
2021/12/27 07:21:53;;;;;;;4.60;3.90;;;;;;;5.07;89.60;98174.91;4977886;28;20917;-90
2021/12/27 07:24:19;;;;;;;3.80;3.50;;;;;;;5.03;89.66;98183.88;4976695;28;20385;-90
2021/12/27 07:26:44;;;;;;;4.93;4.43;;;;;;;5.03;89.96;98175.25;4987448;28;20462;-90
2021/12/27 07:29:10;;;;;;;4.80;4.30;;;;;;;5.03;89.79;98183.88;4986269;28;20200;-90
2021/12/27 07:31:36;;;;;;;5.10;4.60;;;;;;;5.04;90.03;98184.69;4966476;28;20322;-91
2021/12/27 07:34:01;;;;;;;4.43;4.03;;;;;;;5.05;89.83;98183.75;4987347;28;20469;-91
2021/12/27 07:36:30;;;;;;;4.17;3.83;;;;;;;5.06;89.87;98183.66;4992258;28;20340;-91
2021/12/27 07:38:57;;;;;;;4.88;4.38;;;;;;;5.05;89.95;98189.81;4986152;28;20224;-90
2021/12/27 07:41:24;;;;;;;4.60;4.18;;;;;;;5.05;89.62;98184.63;4988719;28;20235;-91
2021/12/27 07:43:49;;;;;;;4.95;4.45;;;;;;;5.04;89.33;98182.94;4985215;28;20313;-90
2021/12/27 07:46:15;;;;;;;4.60;4.20;;;;;;;5.02;89.68;98187.41;4986630;28;20377;-90
2021/12/27 07:48:43;;;;;;;5.32;4.82;;;;;;;5.02;89.65;98182.22;4984918;28;20599;-91
2021/12/27 07:51:10;;;;;;;7.13;5.90;;;;;;;5.02;89.65;98181.34;4982193;28;20547;-90
2021/12/27 07:53:36;;;;;;;7.47;6.60;;;;;;;4.99;89.36;98168.53;4990269;28;20272;-90
2021/12/27 07:56:06;;;;;;;7.40;6.80;;;;;;;4.97;89.40;98184.28;4980780;28;20531;-90
2021/12/27 07:58:32;;;;;;;8.38;7.60;;;;;;;4.96;89.22;98181.75;4969705;28;20248;-90
2021/12/27 08:01:00;;;;;;;8.93;7.20;;;;;;;4.98;89.36;98180.72;4986305;28;20492;-91
2021/12/27 08:03:26;;;;;;;9.50;7.47;;;;;;;5.00;89.21;98172.84;4989177;28;20214;-91
2021/12/27 08:05:51;;;;;;;11.37;6.60;;;;;;;4.98;89.20;98178.13;4986108;28;20204;-91
2021/12/27 08:08:18;;;;;;;6.77;6.07;;;;;;;4.95;89.48;98173.13;4987086;28;20211;-90
2021/12/27 08:10:44;;;;;;;9.13;7.68;;;;;;;4.96;89.02;98176.53;4985940;28;20735;-91
2021/12/27 08:13:09;;;;;;;10.67;7.67;;;;;;;4.95;89.24;98175.72;4984818;28;20207;-90
2021/12/27 08:15:35;;;;;;;7.17;6.50;;;;;;;4.94;89.16;98179.25;4989734;28;20215;-91
2021/12/27 08:18:00;;;;;;;8.00;6.90;;;;;;;4.94;89.08;98176.66;4998298;28;20244;-91
2021/12/27 08:20:26;;;;;;;9.13;6.83;;;;;;;4.93;89.44;98164.56;4995469;28;20609;-91
2021/12/27 08:22:52;;;;;;;10.63;8.37;;;;;;;4.94;89.09;98163.66;4997773;28;20221;-91
2021/12/27 08:25:17;;;;;;;7.87;7.03;;;;;;;4.94;88.80;98155.84;4999493;28;20218;-91
2021/12/27 08:27:44;;;;;;;10.57;7.33;;;;;;;4.94;88.99;98155.84;4994666;28;20421;-90
2021/12/27 08:30:13;;;;;;;10.70;8.05;;;;;;;4.97;89.07;98158.25;5009257;28;20227;-91
2021/12/27 08:32:41;;;;;;;10.30;9.20;;;;;;;5.18;89.26;98160.38;4988981;28;20631;-90
2021/12/27 08:35:08;;;;;;;8.52;7.70;;;;;;;5.20;88.82;98168.94;5006354;28;20458;-91
2021/12/27 08:37:34;;;;;;;6.60;6.13;;;;;;;5.22;88.90;98162.69;4990426;28;20230;-91
2021/12/27 08:40:05;;;;;;;8.07;7.30;;;;;;;5.27;88.65;98157.19;4971504;28;20196;-90
2021/12/27 08:42:30;;;;;;;10.10;7.63;;;;;;;5.35;88.60;98160.13;4991362;28;20222;-91
2021/12/27 08:44:56;;;;;;;10.30;8.13;;;;;;;5.39;89.00;98156.38;4987924;28;20204;-90
2021/12/27 08:47:23;;;;;;;13.60;9.75;;;;;;;5.46;88.49;98160.25;4993314;28;20208;-90
2021/12/27 08:49:48;;;;;;;8.80;8.00;;;;;;;5.53;88.58;98153.69;4999040;28;20218;-91
2021/12/27 08:52:14;;;;;;;9.87;8.87;;;;;;;5.64;88.55;98152.16;5001703;28;20622;-90
2021/12/27 08:54:39;;;;;;;8.33;7.73;;;;;;;5.77;88.51;98143.41;5007527;28;20187;-92
2021/12/27 08:57:09;;;;;;;6.10;5.57;;;;;;;6.03;88.48;98148.66;5005793;28;20278;-91
2021/12/27 08:59:37;;;;;;;4.50;3.65;;;;;;;6.61;87.66;98146.38;4986427;28;20238;-90
2021/12/27 09:02:04;;;;;;;4.03;3.72;;;;;;;7.55;86.33;98148.25;4970331;28;20206;-93
2021/12/27 09:04:30;;;;;;;4.55;2.90;;;;;;;8.56;83.94;98126.59;4966750;28;20737;-92
2021/12/27 09:06:55;;;;;;;4.00;3.23;;;;;;;9.53;81.07;98128.31;4981860;28;20591;-91
2021/12/27 09:09:21;;;;;;;4.60;4.10;;;;;;;10.39;78.43;98115.78;4981303;28;20238;-91
2021/12/27 09:11:47;;;;;;;4.43;4.03;;;;;;;11.03;75.79;98108.47;4971980;28;20243;-92
2021/12/27 09:14:14;;;;;;;6.70;5.22;;;;;;;11.21;74.85;98112.06;4983525;28;20218;-92
2021/12/27 09:16:40;;;;;;;4.25;3.95;;;;;;;11.17;74.87;98109.84;4986240;28;20218;-91
2021/12/27 09:19:06;;;;;;;4.50;4.10;;;;;;;11.01;74.85;98105.97;4991409;28;20227;-93
2021/12/27 09:21:31;;;;;;;6.70;5.90;;;;;;;10.74;75.29;98101.38;4987965;28;20226;-92
2021/12/27 09:24:04;;;;;;;6.43;6.03;;;;;;;10.36;76.17;98092.44;4988705;28;20516;-93
2021/12/27 09:26:33;;;;;;;6.20;5.60;;;;;;;9.95;76.94;98094.19;4989767;28;20648;-90
2021/12/27 09:28:59;;;;;;;7.47;6.78;;;;;;;9.68;77.80;98093.91;4984665;28;20277;-91
2021/12/27 09:31:25;;;;;;;6.80;6.23;;;;;;;9.46;78.42;98090.47;4985502;28;20284;-91
2021/12/27 09:33:53;;;;;;;7.35;6.45;;;;;;;9.31;78.40;98089.09;4984750;28;20208;-92
2021/12/27 09:36:19;;;;;;;11.65;10.40;;;;;;;9.11;78.66;98089.94;4989328;28;20218;-91
2021/12/27 09:38:45;;;;;;;14.93;11.13;;;;;;;8.93;79.23;98085.22;4986328;28;20218;-91
2021/12/27 09:41:14;;;;;;;13.68;12.23;;;;;;;8.86;79.35;98077.03;4984333;28;20263;-91
2021/12/27 09:43:40;;;;;;;11.77;10.27;;;;;;;8.83;79.44;98076.44;4985580;28;20206;-92
2021/12/27 09:46:06;;;;;;;10.50;9.45;;;;;;;8.76;79.59;98076.13;4986475;28;20519;-91
2021/12/27 09:48:34;;;;;;;13.63;11.02;;;;;;;8.71;79.73;98077.44;4984716;28;20289;-91
2021/12/27 09:51:00;;;;;;;10.65;9.55;;;;;;;8.66;79.92;98069.94;4988045;28;20210;-91
2021/12/27 09:53:25;;;;;;;14.83;10.70;;;;;;;8.63;79.92;98073.66;4977254;28;20541;-92
2021/12/27 09:55:51;;;;;;;11.20;9.97;;;;;;;8.68;79.79;98062.00;4977557;28;20467;-91
2021/12/27 09:58:17;;;;;;;9.33;8.17;;;;;;;8.67;79.73;98060.31;4973801;28;20226;-92
2021/12/27 10:00:43;;;;;;;12.83;7.90;;;;;;;8.61;79.81;98059.00;4985798;28;20954;-91
2021/12/27 10:03:09;;;;;;;11.40;9.07;;;;;;;8.50;80.21;98065.09;4961004;28;20552;-91
2021/12/27 10:05:35;;;;;;;10.57;9.60;;;;;;;8.42;80.52;98067.50;4990352;28;20299;-91
2021/12/27 10:08:02;;;;;;;6.97;6.38;;;;;;;8.32;80.98;98062.16;5006067;28;20299;-91
2021/12/27 10:10:51;;;;;;;6.50;5.90;;;;;;;8.24;81.38;98063.72;5011498;28;20243;-92
2021/12/27 10:13:17;;;;;;;7.43;6.72;;;;;;;8.17;81.63;98060.75;4991588;28;20195;-91
2021/12/27 10:15:45;;;;;;;6.30;5.73;;;;;;;8.18;81.67;98062.38;5006781;28;20195;-91
2021/12/27 10:18:14;;;;;;;6.70;6.00;;;;;;;8.16;81.88;98059.91;5006779;28;20223;-90
2021/12/27 10:20:41;;;;;;;5.97;5.55;;;;;;;8.15;81.88;98057.41;5007185;28;20207;-90
2021/12/27 10:23:08;;;;;;;9.68;6.15;;;;;;;8.13;82.08;98057.53;4996304;28;20214;-90
2021/12/27 10:25:33;;;;;;;6.00;5.43;;;;;;;8.13;82.16;98052.31;4986184;28;20198;-90
2021/12/27 10:28:01;;;;;;;8.77;6.30;;;;;;;8.10;82.13;98044.72;4965293;28;20203;-90
2021/12/27 10:30:30;;;;;;;23.75;22.10;;;;;;;8.12;82.42;98049.81;4973539;28;20662;-90
2021/12/27 10:33:09;;;;;;;7.13;6.63;;;;;;;8.14;82.33;98043.50;4978666;28;20404;-90
2021/12/27 10:35:47;;;;;;;6.32;5.72;;;;;;;8.15;82.33;98039.91;4966946;28;20195;-91
2021/12/27 10:38:19;;;;;;;6.00;5.50;;;;;;;8.19;82.18;98041.34;4976807;28;20262;-91
2021/12/27 10:40:56;;;;;;;7.65;5.68;;;;;;;8.22;82.22;98042.06;4982823;28;20223;-92
2021/12/27 10:43:42;;;;;;;6.70;6.00;;;;;;;8.23;82.32;98043.72;4970523;28;20206;-90
2021/12/27 10:46:20;;;;;;;7.70;6.90;;;;;;;8.24;82.43;98038.38;4985921;28;20199;-91
2021/12/27 10:48:54;;;;;;;7.57;6.78;;;;;;;8.22;82.41;98034.22;4987149;28;20811;-92
2021/12/27 10:51:21;;;;;;;12.68;7.97;;;;;;;8.24;82.47;98045.41;4998868;28;20233;-91
2021/12/27 10:53:50;;;;;;;9.27;8.20;;;;;;;8.24;82.54;98046.25;4989976;28;20207;-90
2021/12/27 10:56:18;;;;;;;9.68;7.28;;;;;;;8.22;82.70;98045.53;4967247;28;20215;-92
2021/12/27 10:59:00;;;;;;;11.02;9.45;;;;;;;8.20;82.53;98048.25;4985681;28;20199;-91
2021/12/27 11:01:28;;;;;;;11.18;8.25;;;;;;;8.22;82.72;98048.13;4988683;28;20203;-91
2021/12/27 11:03:59;;;;;;;9.07;8.10;;;;;;;8.22;82.72;98042.91;4987871;28;20235;-91
2021/12/27 11:06:30;;;;;;;9.27;6.88;;;;;;;8.18;82.80;98042.31;4966974;28;20215;-90
2021/12/27 11:08:58;;;;;;;12.45;8.82;;;;;;;8.15;82.82;98049.56;4971485;28;20653;-91
2021/12/27 11:11:25;;;;;;;11.68;9.10;;;;;;;8.10;82.92;98055.16;4974454;28;20275;-91
2021/12/27 11:13:55;;;;;;;7.57;6.78;;;;;;;8.09;83.14;98060.50;4989639;28;20252;-91
2021/12/27 11:16:21;;;;;;;11.63;7.82;;;;;;;8.07;83.04;98063.22;4985911;28;20203;-91
2021/12/27 11:18:47;;;;;;;7.82;6.45;;;;;;;8.05;83.32;98070.38;4975295;28;20265;-90
2021/12/27 11:21:14;;;;;;;6.47;5.77;;;;;;;8.06;83.31;98063.38;4987294;28;20199;-91
2021/12/27 11:23:41;;;;;;;8.00;7.20;;;;;;;8.07;83.23;98067.63;4968684;28;20222;-90
2021/12/27 11:26:15;;;;;;;8.40;6.75;;;;;;;8.07;83.32;98060.63;4981143;28;20195;-90
2021/12/27 11:28:43;;;;;;;10.93;8.57;;;;;;;8.01;83.30;98057.66;4983796;28;20617;-91
2021/12/27 11:31:29;;;;;;;11.13;7.80;;;;;;;7.97;83.44;98057.91;4980529;28;20204;-90
2021/12/27 11:34:08;;;;;;;7.13;6.43;;;;;;;8.00;83.47;98050.78;4992836;28;20241;-90
2021/12/27 11:36:36;;;;;;;6.50;5.80;;;;;;;8.03;83.42;98059.22;4991469;28;20227;-90
2021/12/27 11:39:28;;;;;;;8.93;6.40;;;;;;;8.06;83.47;98069.41;4983221;28;20237;-89
2021/12/27 11:41:58;;;;;;;8.13;7.32;;;;;;;8.06;83.40;98053.72;4990007;28;20353;-90
2021/12/27 11:44:44;;;;;;;9.57;7.18;;;;;;;8.07;83.28;98060.63;4999632;28;20211;-90
2021/12/27 11:47:11;;;;;;;7.68;6.88;;;;;;;8.07;83.26;98050.16;4977004;28;20207;-90
2021/12/27 11:49:47;;;;;;;9.05;6.30;;;;;;;8.04;83.27;98068.69;4988880;28;20231;-90